首页
METAR-TAF:

METAR-TAF

机场 :

博伊西機場

博伊西, 爱达荷州, 美国

纬度: 43-34-00N, 经度: 116-14-26W, 海拔: 871米

当前天气观测

该预报发布于44分钟前的12:53 UTC
风速5节,风向
温度 9°C
湿度 57%
气压 1005 hPa
能見度: 16.1公里
阴天层高于7500英尺

METAR: KBOI 261253Z 17005KT 10SM OVC075 09/01 A2969 RMK AO2 SLP044 T00940006

时间: 06:37 (13:37 UTC)

预报

该预报发布于1小时和57分钟前的11:40 UTC
预报有效从26日的 12点(UTC)到 27日的 12点(UTC)
风速10节,风向南转西南
能見度: 10公里
阴天层高于8000英尺
附近有阵雨
从 26日的 1800点(UTC)
风速15节,风向西转西北,有时为25节阵风
能見度: 4.8公里
散云层高于1000英尺
阴天层高于2000英尺
阵雨, 轻雾
从 26日的 2000点(UTC)
风速17节,风向西北,有时为27节阵风
能見度: 3.2公里
散云层高于1000英尺
阴天层高于2000英尺
小阵雪, 雨, 轻雾
从 26日的 2200点(UTC)
风速15节,风向西北,有时为25节阵风
能見度: 9.7公里
多云层高于3500英尺
小阵雪, 轻雾
从 27日的 0200点(UTC)
风速9节,风向西转西北
能見度: 10公里
多云层高于8000英尺

TAF: KBOI 261140Z 2612/2712 20010KT P6SM VCSH OVC080 FM261800 30015G25KT 3SM SHRA BR SCT010 OVC020 FM262000 32017G27KT 2SM -SHSNRA BR SCT010 OVC020 FM262200 32015G25KT 6SM -SHSN BR BKN035 FM270200 29009KT P6SM BKN080

超过4000个机场的气象观测和天气预报(METAR&TAF报告)。

可查询的气象台以黄色和红色小点在地图上表示。

将鼠标移到小点上方,可查看气象台名称。

然后点击查看天气观测和预报。

如需切换地图:点击带黑十字的绿色按钮放大地图;点击带横线的绿色按钮缩小地图;或者点击绿色箭头查看邻近地区的地图。


METAR-TAF: